createdAt,value
2018-03-07T00:04:52.600Z,78.8
2018-03-07T00:15:07.558Z,78
2018-03-07T00:25:23.028Z,78.3
2018-03-07T00:35:38.624Z,78.3
2018-03-07T00:45:53.731Z,78.4
2018-03-07T00:56:09.233Z,77.8
2018-03-07T01:06:23.788Z,77.2
2018-03-07T01:16:38.549Z,76.5
2018-03-07T01:26:52.463Z,76.2
2018-03-07T01:37:07.677Z,75.7
2018-03-07T01:47:23.176Z,75.2
2018-03-07T01:57:37.270Z,74.2
2018-03-07T02:07:52.881Z,72.8
2018-03-07T02:18:07.314Z,71.8
2018-03-07T02:28:21.589Z,70.7
2018-03-07T02:38:35.771Z,69.7
2018-03-07T02:48:50.307Z,68.3
2018-03-07T02:59:05.687Z,66.2
2018-03-07T03:09:21.068Z,66.3
2018-03-07T03:19:36.545Z,66.2
2018-03-07T03:29:51.350Z,64.2
2018-03-07T03:40:05.230Z,59.4
2018-03-07T03:50:20.377Z,57.8
2018-03-07T04:00:35.603Z,56.7
2018-03-07T04:10:50.049Z,56
2018-03-07T04:21:05.047Z,55.6
2018-03-07T04:31:18.809Z,55.1
2018-03-07T04:41:33.107Z,54.9
2018-03-07T04:51:46.780Z,54.4
2018-03-07T05:02:00.929Z,53.7
2018-03-07T05:12:15.517Z,53.9
2018-03-07T05:22:31.081Z,53.5
2018-03-07T05:32:44.964Z,53
2018-03-07T05:43:00.102Z,52.7
2018-03-07T05:53:14.317Z,52.4
2018-03-07T06:03:28.911Z,52.5
2018-03-07T06:13:43.291Z,52.1
2018-03-07T06:23:57.637Z,51.9
2018-03-07T06:34:12.064Z,52.1
2018-03-07T06:44:26.570Z,52.1
2018-03-07T06:54:41.997Z,52.2
2018-03-07T07:04:56.774Z,52.7
2018-03-07T07:15:10.889Z,52.9
2018-03-07T07:25:25.873Z,53
2018-03-07T07:35:40.593Z,53
2018-03-07T07:45:55.544Z,53.6
2018-03-07T07:56:10.099Z,54
2018-03-07T08:06:25.095Z,55.3
2018-03-07T08:16:40.211Z,56.4
2018-03-07T08:26:54.319Z,63.4
2018-03-07T08:37:09.719Z,63.9
2018-03-07T08:47:25.078Z,59.9
2018-03-07T08:57:40.661Z,57.3
2018-03-07T09:07:55.532Z,58.2
2018-03-07T09:18:10.817Z,60.3
2018-03-07T09:28:26.273Z,64.3
2018-03-07T09:38:41.186Z,70.3
2018-03-07T09:48:55.438Z,78.2
2018-03-07T09:59:10.660Z,82.3
2018-03-07T10:09:26.092Z,85.7
2018-03-07T10:19:40.835Z,87.3
2018-03-07T10:29:55.706Z,88.4
2018-03-07T10:40:10.979Z,90.9
2018-03-07T10:50:26.418Z,91.6
2018-03-07T11:00:41.076Z,90.6
2018-03-07T11:10:56.355Z,90.7
2018-03-07T11:21:10.445Z,89.4
2018-03-07T11:31:26.072Z,87.9
2018-03-07T11:41:40.954Z,86.9
2018-03-07T11:51:55.185Z,87.3
2018-03-07T12:02:09.848Z,87.5
2018-03-07T12:12:25.321Z,87.9
2018-03-07T12:22:40.456Z,87.5
2018-03-07T12:32:55.629Z,86.6
2018-03-07T12:43:09.584Z,86.8
2018-03-07T12:53:24.390Z,87.8
2018-03-07T13:03:38.380Z,87.9
2018-03-07T13:13:52.297Z,88.7
2018-03-07T13:24:06.435Z,88.8
2018-03-07T13:34:21.276Z,91
2018-03-07T13:44:36.771Z,91.6
2018-03-07T13:54:51.082Z,92.7
2018-03-07T14:05:06.239Z,95
2018-03-07T14:15:20.200Z,98.1
2018-03-07T14:25:35.648Z,100
2018-03-07T14:35:51.289Z,100
2018-03-07T14:46:05.320Z,100
2018-03-07T14:56:20.296Z,100
2018-03-07T15:06:35.665Z,100
2018-03-07T15:16:50.870Z,100
2018-03-07T15:27:05.243Z,100
2018-03-07T15:37:19.140Z,100
2018-03-07T15:47:34.556Z,100
2018-03-07T15:57:48.795Z,100
2018-03-07T16:08:03.736Z,100
2018-03-07T16:18:17.697Z,100
2018-03-07T16:28:31.929Z,99.5
2018-03-07T16:38:46.546Z,97.3
2018-03-07T17:09:28.537Z,87.2
2018-03-07T17:19:42.459Z,83.7
2018-03-07T17:29:57.240Z,81.5
2018-03-07T17:40:12.194Z,79.4
2018-03-07T17:50:27.176Z,78.5
2018-03-07T18:00:41.561Z,77.8
2018-03-07T18:10:55.537Z,78
2018-03-07T18:21:10.250Z,79.5
2018-03-07T18:31:25.569Z,79.9
2018-03-07T18:41:39.369Z,79.1
2018-03-07T18:51:54.374Z,77.9
2018-03-07T19:02:08.585Z,76.5
2018-03-07T19:12:23.156Z,75.7
2018-03-07T19:22:38.304Z,73.9
2018-03-07T19:32:53.312Z,72.4
2018-03-07T19:43:08.836Z,71.4
2018-03-07T19:53:23.123Z,70.5
2018-03-07T20:03:37.877Z,69.2
2018-03-07T20:13:51.885Z,68.6
2018-03-07T20:24:06.863Z,68.3
2018-03-07T20:34:22.428Z,67.5
2018-03-07T20:44:36.267Z,67.5
2018-03-07T20:54:51.325Z,67.5
2018-03-07T21:05:05.628Z,67.5
2018-03-07T21:15:19.732Z,68.4
2018-03-07T21:25:34.889Z,69.1
2018-03-07T21:35:50.394Z,68.7
2018-03-07T21:46:05.686Z,69.1
2018-03-07T21:56:21.140Z,68.8
2018-03-07T22:06:36.472Z,69
2018-03-07T22:16:52.043Z,68.8
2018-03-07T22:27:07.034Z,68.9
2018-03-07T22:37:21.859Z,69
2018-03-07T22:47:36.338Z,68.6
2018-03-07T22:57:51.623Z,68.7
2018-03-07T23:08:05.952Z,68.2
2018-03-07T23:18:20.673Z,68.6
2018-03-07T23:28:36.286Z,67
2018-03-07T23:38:50.511Z,67.2
2018-03-07T23:49:05.214Z,67.4
2018-03-07T23:59:19.893Z,67.7
